Maryville, TN (37804)

10:35 AM EST on December 26, 2014 (GMT -0500)
Maryville | Change Station
CLOSE
Current Station
Personal Weather Station
Location: Maryville, TN
Elevation: 962 ft
Nearby Weather Stations

Elev 962 ft 35.74 °N, 83.97 °W | Updated 48 seconds ago

Mostly Cloudy
Mostly Cloudy
35.1 °F
Feels Like 35 °F
N
0.0
Wind Variable Wind from NNE
Gusts 0.0 mph

Today
High -- | Low -- °F
--% Chance of Precip.
Yesterday
High -- | Low -- °F
Precip. -- in
7:44 AM 5:28 PM
Waxing Crescent, 26% visible
Pressure 30.36 in
Visibility 10.0 miles
Clouds Few 7000 ft
Few 15000 ft
Scattered Clouds 25000 ft
Windchill 35 °F
Dew Point 31 °F
Humidity 86%
Rainfall 0.00 in
Snow Depth Not available.
UV 0 out of 12
Pollen .10 out of 12
Air Quality Not available.
Flu Activity Not available.
METAR KTYS 261353Z 00000KT 10SM FEW070 FEW150 SCT250 M01/M02 A3034 RMK AO2 SLP280 I1000 T10111022

More Conditions Fewer Conditions

Pressure 30.36 in
Visibility 10.0 miles
Clouds Few 7000 ft
Few 15000 ft
Scattered Clouds 25000 ft
Windchill 35 °F
Dew Point 31 °F
Humidity 86%
Rainfall 0.00 in
Snow Depth Not available.
UV 0 out of 12
Pollen .10 out of 12
Air Quality Not available.
Flu Activity Not available.
METAR KTYS 261353Z 00000KT 10SM FEW070 FEW150 SCT250 M01/M02 A3034 RMK AO2 SLP280 I1000 T10111022

More Conditions Fewer Conditions

10-Day Weather Forecast

Almanac

Astronomy

Dec. 26, 2014 Rise Set
Actual Time
Civil Twilight
Nautical Twilight
Astronomical Twilight
Moon
Length of Visible Light
Length of Day
Tomorrow will be .
, % of the Moon is Illuminated

Today's Extremes

State Highs State Lows

Community

WunderPhotos

Upload Photos

1,780,608 photos uploaded!

WunderBlogs® & News

Nearby

Air Quality

  Air Quality AQ Index Pollutant
Not available.

Snow Depth

Station Depth Elevation

Earthquake Activity

City Distance Mag. Time & Date
Minimum magnitude displayed is 2.5.

Coastal Water Temperatures

Place Temperature

Nearby Weather Stations